KBVE

Boothville Airport

Boothville, Louisiana, USA
METAR KBVE 231001Z AUTO 08005KT 1/4SM FG VV020 18/18 A3025 RMK AO2 T01830178 $
Observed Flight Rules
Feb-23 @ 10:01 UTC (25 minutes ago) Instrument Flight Rules
Wind Visibility Clouds Conditions
80° at 5 knots 1/4 miles
  • Vertical visibility at 2,000' AGL
  • Fog
Temperatures Readings
Current 18°C / 64°F
Dewpoint 18°C / 64°F
Humidity 100%
Altimeter 30.25" Hg
Pressure 1024 hPa
Elevation 1
METAR KBVE 231001Z AUTO 08005KT 1/4SM FG VV020 18/18 A3025 RMK AO2 T01830178 $
Observed Flight Rules
Feb-23 @ 10:01 UTC
(25 minutes ago)
LIFR
Wind Visibility
80° at 5 knots 1/4 miles
Clouds
  • Vertical visibility at 2,000' AGL
Conditions
  • Fog
Temperature Dewpoint
18°C / 64°F 18°C / 64°F
Humidity Altimeter Pressure
100% 30.25" Hg 1024 hPa